Takuyo Maru — JD3661 — position and weather

sailwx.info

Track history (hours):
 
Tides and Currents Weather Stations Pressure Air Temp Water Temp Dewpoint Dewpoint Depression Visibility Wind Speed Wind Dir Waves Ship Positions

Takuyo Maru

Last reported at 2018-Jun-05 08:45 UTC. Time now 2018-Jun-20 02:06 UTC.
Position N 34°01' E 134°55'.
Warning: this ship's position is 14 days out of date.

Length 61 m.

Type: Cargo ship. MMSI: 431005239.

Date/timePositionNaut miles runAvg speedWind from/ knotsBaromVisibWave heightAir tempDewpointWater temp
2018-Jun-05 08:45N 34°01' E 134°55'411.1
2018-Jun-05 08:23N 33°58' E 134°58'248 9.1
2018-Jun-04 05:05N 35°19' E 139°43'311.0
2018-Jun-04 04:50N 35°22' E 139°42'5 3.7
2018-Jun-04 03:23N 35°27' E 139°43'0 0.0
2018-Jun-04 01:25N 35°27' E 139°43'0 0.1
2018-Jun-04 01:00N 35°27' E 139°43'  
2018-Jun-01 18:37N 35°19' E 139°44'210.8
2018-Jun-01 18:27N 35°17' E 139°46'5 9.9
2018-Jun-01 17:59N 35°13' E 139°47'510.1
2018-Jun-01 17:28N 35°08' E 139°46'5 9.7
2018-Jun-01 17:00N 35°03' E 139°43'6 9.8
2018-Jun-01 16:26N 35°00' E 139°38'  
2018-May-29 15:44N 33°53' E 135°02'1712.0
2018-May-29 14:20N 34°10' E 135°04'411.7
2018-May-29 14:00N 34°14' E 135°05'2 1.2
2018-May-29 12:15N 34°15' E 135°07'0 0.0
2018-May-29 09:25N 34°15' E 135°07'0 0.0
2018-May-29 08:52N 34°15' E 135°07'0 0.0
2018-May-29 07:40N 34°15' E 135°07'0 0.0
2018-May-29 07:28N 34°15' E 135°07'0 0.0
2018-May-29 06:58N 34°15' E 135°07'0 0.0
2018-May-29 06:28N 34°15' E 135°07'0 0.0
2018-May-28 23:00N 34°15' E 135°07'0 0.0
2018-May-28 22:29N 34°15' E 135°07'0 0.0
2018-May-28 21:59N 34°15' E 135°07'0 0.0
2018-May-28 21:29N 34°15' E 135°07'0 0.0
2018-May-28 20:59N 34°15' E 135°07'0 0.0
2018-May-28 20:29N 34°15' E 135°07'0 0.0
2018-May-28 19:59N 34°15' E 135°07'0 0.0
2018-May-28 19:29N 34°15' E 135°07'0 0.0
2018-May-28 18:59N 34°15' E 135°07'0 0.0
2018-May-28 18:29N 34°15' E 135°07'0 0.0
2018-May-28 17:59N 34°15' E 135°07'0 0.0
2018-May-28 17:29N 34°15' E 135°07'0 0.0
2018-May-28 16:59N 34°15' E 135°07'0 0.0
2018-May-28 16:29N 34°15' E 135°07'0 0.0
2018-May-28 15:59N 34°15' E 135°07'0 0.0
2018-May-28 15:29N 34°15' E 135°07'0 0.0
2018-May-28 14:59N 34°15' E 135°07'0 0.0
2018-May-28 14:29N 34°15' E 135°07'0 0.0
2018-May-28 13:59N 34°15' E 135°07'0 0.0
2018-May-28 13:29N 34°15' E 135°07'0 0.0
2018-May-28 12:59N 34°15' E 135°07'0 0.0
2018-May-28 12:23N 34°15' E 135°07'0 0.0
2018-May-28 11:59N 34°15' E 135°07'0 0.9
2018-May-28 11:28N 34°14' E 135°07'1 3.1
2018-May-28 11:00N 34°15' E 135°06'3 5.4
2018-May-28 10:30N 34°17' E 135°03'5 9.5
2018-May-28 10:00N 34°21' E 135°06'5 9.3
2018-May-28 09:30N 34°25' E 135°09'5 9.7
2018-May-28 09:00N 34°29' E 135°13'7 9.6
2018-May-28 08:18N 34°33' E 135°19'410.2
2018-May-28 07:57N 34°36' E 135°22'510.0
2018-May-28 07:26N 34°40' E 135°25'1 0.0
2018-May-27 01:51N 34°41' E 135°26'3 7.4
2018-May-27 01:30N 34°38' E 135°24'4110.6
2018-May-26 21:37N 34°28' E 134°36'211.3
2018-May-26 21:28N 34°28' E 134°34'  
Track history (hours):
 
Tides and Currents Weather Stations Pressure Air Temp Water Temp Dewpoint Dewpoint Depression Visibility Wind Speed Wind Dir Waves Ship Positions

Takuyo Maru

Last reported at 2018-Jun-05 08:45 UTC. Time now 2018-Jun-20 02:06 UTC.
Position N 34°01' E 134°55'.
Warning: this ship's position is 14 days out of date.

Length 61 m.

Type: Cargo ship. MMSI: 431005239.

Date/timePositionNaut miles runAvg speedWind from/ knotsBaromVisibWave heightAir tempDewpointWater temp
2018-Jun-05 08:45N 34°01' E 134°55'411.1
2018-Jun-05 08:23N 33°58' E 134°58'248 9.1
2018-Jun-04 05:05N 35°19' E 139°43'311.0
2018-Jun-04 04:50N 35°22' E 139°42'5 3.7
2018-Jun-04 03:23N 35°27' E 139°43'0 0.0
2018-Jun-04 01:25N 35°27' E 139°43'0 0.1
2018-Jun-04 01:00N 35°27' E 139°43'  
2018-Jun-01 18:37N 35°19' E 139°44'210.8
2018-Jun-01 18:27N 35°17' E 139°46'5 9.9
2018-Jun-01 17:59N 35°13' E 139°47'510.1
2018-Jun-01 17:28N 35°08' E 139°46'5 9.7
2018-Jun-01 17:00N 35°03' E 139°43'6 9.8
2018-Jun-01 16:26N 35°00' E 139°38'  
2018-May-29 15:44N 33°53' E 135°02'1712.0
2018-May-29 14:20N 34°10' E 135°04'411.7
2018-May-29 14:00N 34°14' E 135°05'2 1.2
2018-May-29 12:15N 34°15' E 135°07'0 0.0
2018-May-29 09:25N 34°15' E 135°07'0 0.0
2018-May-29 08:52N 34°15' E 135°07'0 0.0
2018-May-29 07:40N 34°15' E 135°07'0 0.0
2018-May-29 07:28N 34°15' E 135°07'0 0.0
2018-May-29 06:58N 34°15' E 135°07'0 0.0
2018-May-29 06:28N 34°15' E 135°07'0 0.0
2018-May-28 23:00N 34°15' E 135°07'0 0.0
2018-May-28 22:29N 34°15' E 135°07'0 0.0
2018-May-28 21:59N 34°15' E 135°07'0 0.0
2018-May-28 21:29N 34°15' E 135°07'0 0.0
2018-May-28 20:59N 34°15' E 135°07'0 0.0
2018-May-28 20:29N 34°15' E 135°07'0 0.0
2018-May-28 19:59N 34°15' E 135°07'0 0.0
2018-May-28 19:29N 34°15' E 135°07'0 0.0
2018-May-28 18:59N 34°15' E 135°07'0 0.0
2018-May-28 18:29N 34°15' E 135°07'0 0.0
2018-May-28 17:59N 34°15' E 135°07'0 0.0
2018-May-28 17:29N 34°15' E 135°07'0 0.0
2018-May-28 16:59N 34°15' E 135°07'0 0.0
2018-May-28 16:29N 34°15' E 135°07'0 0.0
2018-May-28 15:59N 34°15' E 135°07'0 0.0
2018-May-28 15:29N 34°15' E 135°07'0 0.0
2018-May-28 14:59N 34°15' E 135°07'0 0.0
2018-May-28 14:29N 34°15' E 135°07'0 0.0
2018-May-28 13:59N 34°15' E 135°07'0 0.0
2018-May-28 13:29N 34°15' E 135°07'0 0.0
2018-May-28 12:59N 34°15' E 135°07'0 0.0
2018-May-28 12:23N 34°15' E 135°07'0 0.0
2018-May-28 11:59N 34°15' E 135°07'0 0.9
2018-May-28 11:28N 34°14' E 135°07'1 3.1
2018-May-28 11:00N 34°15' E 135°06'3 5.4
2018-May-28 10:30N 34°17' E 135°03'5 9.5
2018-May-28 10:00N 34°21' E 135°06'5 9.3
2018-May-28 09:30N 34°25' E 135°09'5 9.7
2018-May-28 09:00N 34°29' E 135°13'7 9.6
2018-May-28 08:18N 34°33' E 135°19'410.2
2018-May-28 07:57N 34°36' E 135°22'510.0
2018-May-28 07:26N 34°40' E 135°25'1 0.0
2018-May-27 01:51N 34°41' E 135°26'3 7.4
2018-May-27 01:30N 34°38' E 135°24'4110.6
2018-May-26 21:37N 34°28' E 134°36'211.3
2018-May-26 21:28N 34°28' E 134°34'  

Dump ship's entire track history